Time;durP1;ratioP1;P1;durP2;ratioP2;P2;SDS_P1;SDS_P2;PMS_P1;PMS_P2;Temp;Humidity;BMP_temperature;BMP_pressure;BME280_temperature;BME280_humidity;BME280_pressure;Samples;Min_cycle;Max_cycle;Signal;HPM_P1;HPM_P2
2022/07/05 00:01:27;;;;;;;2.83;1.15;;;22.50;99.90;;;;;;4966406;28;20051;-79
2022/07/05 00:03:53;;;;;;;2.42;1.05;;;22.50;99.90;;;;;;4965287;28;20498;-78
2022/07/05 00:06:20;;;;;;;3.00;1.42;;;22.50;99.90;;;;;;4982715;28;20074;-78
2022/07/05 00:08:47;;;;;;;1.42;0.90;;;22.50;99.90;;;;;;4965060;28;20138;-79
2022/07/05 00:11:14;;;;;;;2.60;1.13;;;22.50;99.90;;;;;;4967951;28;20109;-81
2022/07/05 00:13:40;;;;;;;1.15;1.00;;;22.50;99.90;;;;;;4981472;28;20497;-78
2022/07/05 00:16:07;;;;;;;2.85;1.35;;;22.40;99.90;;;;;;4988317;28;20055;-82
2022/07/05 00:18:34;;;;;;;2.08;1.45;;;22.50;99.90;;;;;;4991276;28;20039;-82
2022/07/05 00:21:01;;;;;;;6.45;1.70;;;22.40;99.90;;;;;;5000105;28;20031;-81
2022/07/05 00:23:27;;;;;;;2.22;1.15;;;22.40;99.90;;;;;;4999970;28;20041;-81
2022/07/05 00:25:54;;;;;;;3.72;1.40;;;22.40;99.90;;;;;;5000238;28;20058;-81
2022/07/05 00:28:21;;;;;;;9.35;1.50;;;22.40;99.90;;;;;;5000322;28;20058;-80
2022/07/05 00:30:48;;;;;;;3.50;1.25;;;22.40;99.90;;;;;;5000237;28;20054;-80
2022/07/05 00:33:14;;;;;;;2.40;1.20;;;22.40;99.90;;;;;;4978000;28;20046;-79
2022/07/05 00:35:41;;;;;;;3.13;1.50;;;22.40;99.90;;;;;;4963938;28;20413;-78
2022/07/05 00:38:08;;;;;;;3.28;1.20;;;22.40;99.90;;;;;;4966340;28;20047;-76
2022/07/05 00:40:35;;;;;;;2.67;1.38;;;22.40;99.90;;;;;;4963448;28;20051;-78
2022/07/05 00:43:02;;;;;;;2.38;1.30;;;22.40;99.90;;;;;;4965741;28;20069;-79
2022/07/05 00:45:28;;;;;;;4.60;1.50;;;22.40;99.90;;;;;;4962624;28;20053;-78
2022/07/05 00:47:55;;;;;;;2.78;1.38;;;22.40;99.90;;;;;;4965372;28;20051;-79
2022/07/05 00:50:22;;;;;;;1.98;1.30;;;22.40;99.90;;;;;;4963961;28;20057;-79
2022/07/05 00:52:52;;;;;;;2.03;1.25;;;22.30;99.90;;;;;;4963852;28;20086;-78
2022/07/05 00:55:19;;;;;;;4.85;1.35;;;22.30;99.90;;;;;;4980249;28;20472;-77
2022/07/05 00:57:45;;;;;;;2.47;1.90;;;22.30;99.90;;;;;;4962091;28;20051;-78
2022/07/05 01:00:12;;;;;;;3.53;1.52;;;22.30;99.90;;;;;;4964755;28;20082;-78
2022/07/05 01:02:39;;;;;;;6.30;1.33;;;22.20;99.90;;;;;;4964139;28;20055;-78
2022/07/05 01:05:06;;;;;;;4.63;1.30;;;22.20;99.90;;;;;;4963039;28;20058;-77
2022/07/05 01:07:34;;;;;;;3.47;1.42;;;22.20;99.90;;;;;;4966241;28;20053;-77
2022/07/05 01:10:01;;;;;;;2.58;1.33;;;22.20;99.90;;;;;;4959879;28;20551;-77
2022/07/05 01:12:28;;;;;;;4.75;1.52;;;22.20;99.90;;;;;;4964457;28;20129;-78
2022/07/05 01:14:56;;;;;;;1.45;1.35;;;22.10;99.90;;;;;;4964356;28;20130;-78
2022/07/05 01:17:23;;;;;;;3.78;1.27;;;22.10;99.90;;;;;;4963700;28;20106;-79
2022/07/05 01:19:51;;;;;;;5.40;1.90;;;22.10;99.90;;;;;;4981870;28;20098;-79
2022/07/05 01:22:20;;;;;;;2.28;1.25;;;22.10;99.90;;;;;;4964698;28;20134;-79
2022/07/05 01:24:48;;;;;;;4.15;1.23;;;22.10;99.90;;;;;;4965810;28;20097;-79
2022/07/05 01:27:16;;;;;;;3.47;1.55;;;22.10;99.90;;;;;;4966574;28;20107;-79
2022/07/05 01:29:43;;;;;;;3.42;1.00;;;22.10;99.90;;;;;;4960036;28;20051;-79
2022/07/05 01:32:10;;;;;;;1.90;1.30;;;22.10;99.90;;;;;;4967132;28;20085;-79
2022/07/05 01:34:40;;;;;;;4.65;1.27;;;22.10;99.90;;;;;;4965575;28;20576;-79
2022/07/05 01:37:08;;;;;;;3.08;1.45;;;22.00;99.90;;;;;;4965185;28;20063;-80
2022/07/05 01:39:36;;;;;;;5.70;1.50;;;22.00;99.90;;;;;;4967482;28;20089;-80
2022/07/05 01:42:03;;;;;;;3.53;1.65;;;22.00;99.90;;;;;;4964395;28;20490;-79
2022/07/05 01:44:30;;;;;;;1.88;1.30;;;21.90;99.90;;;;;;4969939;28;20047;-80
2022/07/05 01:47:02;;;;;;;3.25;1.05;;;21.90;99.90;;;;;;4969747;28;20517;-79
2022/07/05 01:49:33;;;;;;;3.38;1.75;;;21.80;99.90;;;;;;4967640;28;20062;-79
2022/07/05 01:52:08;;;;;;;2.95;1.48;;;21.70;99.90;;;;;;4969977;28;20063;-79
2022/07/05 01:54:35;;;;;;;4.13;1.85;;;21.70;99.90;;;;;;4970591;28;20050;-80
2022/07/05 01:57:03;;;;;;;6.20;1.40;;;21.60;99.90;;;;;;4963405;28;20075;-79
2022/07/05 01:59:33;;;;;;;6.43;1.65;;;21.50;99.90;;;;;;4969523;28;20057;-79
2022/07/05 02:02:00;;;;;;;4.68;1.50;;;21.50;99.90;;;;;;4969557;28;20138;-80
2022/07/05 02:04:28;;;;;;;3.05;1.13;;;21.50;99.90;;;;;;4968272;28;20051;-79
2022/07/05 02:06:56;;;;;;;2.78;1.70;;;21.40;99.90;;;;;;4970793;28;20047;-79
2022/07/05 02:09:23;;;;;;;2.47;1.85;;;21.40;99.90;;;;;;4967568;28;20517;-79
2022/07/05 02:11:50;;;;;;;3.65;1.60;;;21.40;99.90;;;;;;4969176;28;20147;-79
2022/07/05 02:14:17;;;;;;;4.07;1.60;;;21.30;99.90;;;;;;4983521;28;20128;-79
2022/07/05 02:16:44;;;;;;;2.88;1.50;;;21.30;99.90;;;;;;4967619;28;20047;-80
2022/07/05 02:19:11;;;;;;;5.38;1.60;;;21.30;99.90;;;;;;4970002;28;20501;-79
2022/07/05 02:21:38;;;;;;;3.15;1.70;;;21.20;99.90;;;;;;4967762;28;20051;-79
2022/07/05 02:24:06;;;;;;;3.08;1.60;;;21.20;99.90;;;;;;4969129;28;20468;-79
2022/07/05 02:26:32;;;;;;;2.05;1.42;;;21.20;99.90;;;;;;4969378;28;20053;-80
2022/07/05 02:29:00;;;;;;;5.80;1.70;;;21.10;99.90;;;;;;4981802;28;20047;-78
2022/07/05 02:31:26;;;;;;;2.00;1.10;;;21.10;99.90;;;;;;4963090;28;20047;-80
2022/07/05 02:33:53;;;;;;;2.35;1.33;;;21.00;99.90;;;;;;4969073;28;20074;-79
2022/07/05 02:36:20;;;;;;;3.38;1.50;;;20.90;99.90;;;;;;4968426;28;20078;-79
2022/07/05 02:38:47;;;;;;;1.90;1.38;;;20.80;99.90;;;;;;4967474;28;20082;-79
2022/07/05 02:41:14;;;;;;;2.53;1.48;;;20.80;99.90;;;;;;4969873;28;20117;-79
2022/07/05 02:43:40;;;;;;;4.75;1.40;;;20.80;99.90;;;;;;4967241;28;20134;-78
2022/07/05 02:46:08;;;;;;;1.90;1.25;;;20.80;99.90;;;;;;4984308;28;20101;-81
2022/07/05 02:48:36;;;;;;;10.20;1.45;;;20.70;99.90;;;;;;4967611;28;20126;-78
2022/07/05 02:51:04;;;;;;;3.90;1.60;;;20.70;99.90;;;;;;4967567;28;20106;-80
2022/07/05 02:53:31;;;;;;;6.07;1.35;;;20.70;99.90;;;;;;4970343;28;20055;-78
2022/07/05 02:55:58;;;;;;;3.53;1.50;;;20.60;99.90;;;;;;4967429;28;20057;-78
2022/07/05 02:58:24;;;;;;;2.78;1.48;;;20.60;99.90;;;;;;4967271;28;20066;-79
2022/07/05 03:00:51;;;;;;;4.35;1.13;;;20.50;99.90;;;;;;4966318;28;20051;-80
2022/07/05 03:03:18;;;;;;;3.55;1.42;;;20.50;99.90;;;;;;4967289;28;20065;-79
2022/07/05 03:05:45;;;;;;;3.40;1.30;;;20.50;99.90;;;;;;4966437;28;20054;-80
2022/07/05 03:08:12;;;;;;;3.08;1.40;;;20.50;99.90;;;;;;4962769;28;20070;-78
2022/07/05 03:10:39;;;;;;;2.88;1.27;;;20.40;99.90;;;;;;4982067;28;20094;-80
2022/07/05 03:13:06;;;;;;;2.40;1.10;;;20.40;99.90;;;;;;4967498;28;20057;-79
2022/07/05 03:15:33;;;;;;;1.58;1.30;;;20.30;99.90;;;;;;4983322;28;20046;-79
2022/07/05 03:18:00;;;;;;;4.03;1.15;;;20.20;99.90;;;;;;4969741;28;20058;-80
2022/07/05 03:20:27;;;;;;;5.75;1.40;;;20.20;99.90;;;;;;4965800;28;20062;-78
2022/07/05 03:22:54;;;;;;;4.85;1.42;;;20.20;99.90;;;;;;4968223;28;20485;-80
2022/07/05 03:25:21;;;;;;;3.33;1.02;;;20.20;99.90;;;;;;4967829;28;20110;-79
2022/07/05 03:27:48;;;;;;;7.93;1.00;;;20.20;99.90;;;;;;4965786;28;20066;-81
2022/07/05 03:30:14;;;;;;;2.15;1.20;;;20.10;99.90;;;;;;4968962;28;20054;-79
2022/07/05 03:32:41;;;;;;;1.63;1.30;;;20.10;99.90;;;;;;4961890;28;20079;-80
2022/07/05 03:35:08;;;;;;;3.95;1.35;;;20.10;99.90;;;;;;4981833;28;20146;-80
2022/07/05 03:37:35;;;;;;;2.60;1.00;;;20.10;99.90;;;;;;4980580;28;20053;-79
2022/07/05 03:40:03;;;;;;;2.22;1.23;;;20.10;99.90;;;;;;4964838;28;20585;-78
2022/07/05 03:42:30;;;;;;;3.33;1.30;;;20.00;99.90;;;;;;4967679;28;20134;-79
2022/07/05 03:44:57;;;;;;;3.85;1.38;;;19.90;99.90;;;;;;4965861;28;20063;-78
2022/07/05 03:47:23;;;;;;;3.10;1.25;;;19.90;99.90;;;;;;4968458;28;20146;-77
2022/07/05 03:49:50;;;;;;;2.05;1.42;;;19.90;99.90;;;;;;4982099;28;20106;-77
2022/07/05 03:52:17;;;;;;;3.17;1.50;;;19.90;99.90;;;;;;4967154;28;20057;-79
2022/07/05 03:54:51;;;;;;;3.90;1.00;;;19.90;99.90;;;;;;4961919;28;20047;-79
2022/07/05 03:57:18;;;;;;;2.35;1.10;;;19.90;99.90;;;;;;4978712;28;20047;-79
2022/07/05 03:59:45;;;;;;;4.50;1.23;;;19.90;99.90;;;;;;4965154;28;20171;-79
2022/07/05 04:02:12;;;;;;;2.80;1.13;;;19.90;99.90;;;;;;4966669;28;20043;-79
2022/07/05 04:04:39;;;;;;;2.78;0.93;;;19.90;99.90;;;;;;4964289;28;20075;-79
2022/07/05 04:07:06;;;;;;;2.47;1.10;;;19.80;99.90;;;;;;4981619;28;20126;-80
2022/07/05 04:09:33;;;;;;;6.15;1.00;;;19.70;99.90;;;;;;4965935;28;20134;-80
2022/07/05 04:12:00;;;;;;;3.92;1.02;;;19.70;99.90;;;;;;4966379;28;20090;-79
2022/07/05 04:14:27;;;;;;;8.10;1.63;;;19.70;99.90;;;;;;4967871;28;20133;-79
2022/07/05 04:16:53;;;;;;;1.38;0.80;;;19.60;99.90;;;;;;4965316;28;20496;-78
2022/07/05 04:19:20;;;;;;;3.95;1.10;;;19.60;99.90;;;;;;4966827;28;20047;-80
2022/07/05 04:21:47;;;;;;;2.50;0.90;;;19.60;99.90;;;;;;4966213;28;20477;-80
2022/07/05 04:24:15;;;;;;;1.20;0.90;;;19.60;99.90;;;;;;4966740;28;20054;-78
2022/07/05 04:26:42;;;;;;;5.93;1.35;;;19.60;99.90;;;;;;4968580;28;20467;-78
2022/07/05 04:29:09;;;;;;;2.67;1.00;;;19.60;99.90;;;;;;4965189;28;20515;-77
2022/07/05 04:31:36;;;;;;;3.10;1.08;;;19.70;99.90;;;;;;4968300;28;20552;-78
2022/07/05 04:34:03;;;;;;;2.53;0.88;;;19.70;99.90;;;;;;4965749;28;20109;-79
2022/07/05 04:36:30;;;;;;;3.00;1.25;;;19.80;99.90;;;;;;4965799;28;20090;-80
2022/07/05 04:38:56;;;;;;;2.80;0.88;;;19.80;99.90;;;;;;4982240;28;20162;-80
2022/07/05 04:41:23;;;;;;;3.60;0.70;;;19.90;99.90;;;;;;4979335;28;20047;-79
2022/07/05 04:43:50;;;;;;;3.47;0.88;;;20.00;99.90;;;;;;4967103;28;20101;-79
2022/07/05 04:46:17;;;;;;;5.75;1.10;;;20.00;99.90;;;;;;4966284;28;20086;-79
2022/07/05 04:48:44;;;;;;;1.70;0.82;;;20.10;99.90;;;;;;4967595;28;20079;-79
2022/07/05 04:51:10;;;;;;;2.95;0.80;;;20.10;99.90;;;;;;4965344;28;20134;-80
2022/07/05 04:53:37;;;;;;;2.75;0.93;;;20.20;99.90;;;;;;4982476;28;20051;-77
2022/07/05 04:56:05;;;;;;;2.70;1.50;;;20.30;99.90;;;;;;4964709;28;20090;-78
2022/07/05 04:58:32;;;;;;;5.53;1.45;;;20.40;99.90;;;;;;4965073;28;20141;-80
2022/07/05 05:00:59;;;;;;;5.93;1.63;;;20.40;99.90;;;;;;4965624;28;20062;-81
2022/07/05 05:03:25;;;;;;;4.82;1.50;;;20.40;99.90;;;;;;4969222;28;20061;-80
2022/07/05 05:05:52;;;;;;;3.08;1.60;;;20.40;99.90;;;;;;4962260;28;20479;-79
2022/07/05 05:08:19;;;;;;;2.50;1.42;;;20.50;99.90;;;;;;4968567;28;20546;-80
2022/07/05 05:10:46;;;;;;;1.88;1.30;;;20.50;99.90;;;;;;4984552;28;20055;-80
2022/07/05 05:13:12;;;;;;;2.78;1.42;;;20.50;99.90;;;;;;4983140;28;20086;-79
2022/07/05 05:15:39;;;;;;;3.15;1.48;;;20.50;99.90;;;;;;4966979;28;20135;-80
2022/07/05 05:18:06;;;;;;;3.42;1.48;;;20.60;99.90;;;;;;4983173;28;20093;-79
2022/07/05 05:20:32;;;;;;;6.20;1.30;;;20.60;99.90;;;;;;4980895;28;20547;-80
2022/07/05 05:23:06;;;;;;;5.28;1.40;;;20.60;99.90;;;;;;4981585;28;20053;-79
2022/07/05 05:25:34;;;;;;;1.85;1.35;;;20.60;99.90;;;;;;4968701;28;20051;-79
2022/07/05 05:28:02;;;;;;;3.40;1.45;;;20.60;99.90;;;;;;4965555;28;20050;-79
2022/07/05 05:30:28;;;;;;;5.38;1.85;;;20.60;99.90;;;;;;4966847;28;20532;-80
2022/07/05 05:32:55;;;;;;;4.78;2.15;;;20.60;99.90;;;;;;4968013;28;20087;-79
2022/07/05 05:35:23;;;;;;;3.50;1.42;;;20.60;99.90;;;;;;4965709;28;20043;-79
2022/07/05 05:37:53;;;;;;;2.20;1.52;;;20.60;99.90;;;;;;4965849;28;20059;-79
2022/07/05 05:40:22;;;;;;;3.67;1.30;;;20.60;99.90;;;;;;4961709;28;20489;-80
2022/07/05 05:42:50;;;;;;;5.45;1.42;;;20.70;99.90;;;;;;4982344;28;20043;-80
2022/07/05 05:45:17;;;;;;;2.25;1.60;;;20.70;99.90;;;;;;4968064;28;20047;-80
2022/07/05 05:47:49;;;;;;;8.95;2.10;;;20.70;99.90;;;;;;4966125;28;20111;-81
2022/07/05 05:50:20;;;;;;;6.60;2.03;;;20.70;99.90;;;;;;4963704;28;20051;-80
2022/07/05 05:52:47;;;;;;;3.38;2.33;;;20.70;99.90;;;;;;4967179;28;20137;-80
2022/07/05 05:55:14;;;;;;;7.07;2.60;;;20.70;99.90;;;;;;4968468;28;20138;-81
2022/07/05 05:57:40;;;;;;;2.88;2.40;;;20.80;99.90;;;;;;4981006;28;20055;-80
2022/07/05 06:00:08;;;;;;;8.80;3.63;;;20.80;99.90;;;;;;4968301;28;20061;-79
2022/07/05 06:02:36;;;;;;;5.65;3.15;;;20.80;99.90;;;;;;4967819;28;20086;-80
2022/07/05 06:05:03;;;;;;;7.28;3.10;;;20.80;99.90;;;;;;4966560;28;20062;-80
2022/07/05 06:07:29;;;;;;;6.70;3.20;;;20.90;99.90;;;;;;4965537;28;20070;-80
2022/07/05 06:09:56;;;;;;;9.38;2.83;;;20.90;99.90;;;;;;4969356;28;20047;-81
2022/07/05 06:12:23;;;;;;;5.95;2.80;;;20.90;99.90;;;;;;4964922;28;20127;-80
2022/07/05 06:14:50;;;;;;;4.40;2.97;;;20.90;99.90;;;;;;4967215;28;20043;-80
2022/07/05 06:17:17;;;;;;;3.10;2.53;;;21.00;99.90;;;;;;4979623;28;20051;-79
2022/07/05 06:19:43;;;;;;;5.45;3.10;;;20.90;99.90;;;;;;4982682;28;20117;-80
2022/07/05 06:22:10;;;;;;;4.43;2.72;;;21.00;99.90;;;;;;4980903;28;20058;-80
2022/07/05 06:24:37;;;;;;;4.70;3.03;;;21.00;99.90;;;;;;4983750;28;20125;-80
2022/07/05 06:27:04;;;;;;;3.80;2.70;;;20.90;99.90;;;;;;4968288;28;20407;-78
2022/07/05 06:29:31;;;;;;;5.63;2.75;;;21.00;99.90;;;;;;4968485;28;20078;-78
2022/07/05 06:31:59;;;;;;;4.47;2.88;;;21.00;99.90;;;;;;4968940;28;20082;-80
2022/07/05 06:34:26;;;;;;;7.75;3.38;;;21.00;99.90;;;;;;4963049;28;20095;-78
2022/07/05 06:36:53;;;;;;;7.40;3.17;;;21.00;99.90;;;;;;4984487;28;20062;-80
2022/07/05 06:39:20;;;;;;;7.68;4.03;;;21.00;99.90;;;;;;4968017;28;20055;-80
2022/07/05 06:41:46;;;;;;;6.95;4.32;;;21.00;99.90;;;;;;4967698;28;20078;-80
2022/07/05 06:44:13;;;;;;;10.40;3.55;;;21.00;99.90;;;;;;4969242;28;20043;-80
2022/07/05 06:47:00;;;;;;;7.25;3.75;;;21.10;99.90;;;;;;4968986;28;20121;-80
2022/07/05 06:49:27;;;;;;;8.45;3.17;;;21.10;99.90;;;;;;4969683;28;20055;-81
2022/07/05 06:51:53;;;;;;;4.18;3.08;;;21.10;99.90;;;;;;4972857;28;20093;-80
2022/07/05 06:54:20;;;;;;;11.30;3.90;;;21.10;99.90;;;;;;4971420;28;20078;-80
2022/07/05 06:57:07;;;;;;;8.02;3.20;;;21.10;99.90;;;;;;4979082;28;20051;-81
2022/07/05 06:59:53;;;;;;;3.95;2.70;;;21.10;99.90;;;;;;4964008;28;20051;-80
2022/07/05 07:02:22;;;;;;;8.57;2.70;;;21.20;99.90;;;;;;4969535;28;20473;-80
2022/07/05 07:04:50;;;;;;;5.90;2.10;;;21.20;99.90;;;;;;4969587;28;20128;-81
2022/07/05 07:10:22;;;;;;;4.40;2.17;;;21.20;99.90;;;;;;4964428;28;20086;-80
2022/07/05 07:12:55;;;;;;;10.15;2.22;;;21.20;99.90;;;;;;4984690;28;20051;-80
2022/07/05 07:15:22;;;;;;;4.15;1.83;;;21.30;99.90;;;;;;4966510;28;20083;-79
2022/07/05 07:17:48;;;;;;;4.18;1.83;;;21.30;99.90;;;;;;4969681;28;20066;-80
2022/07/05 07:20:15;;;;;;;3.95;1.70;;;21.20;99.90;;;;;;4967668;28;20505;-79
2022/07/05 07:22:42;;;;;;;4.68;1.50;;;21.30;99.90;;;;;;4970322;28;20092;-80
2022/07/05 07:25:11;;;;;;;2.88;1.40;;;21.30;99.90;;;;;;4971163;28;20105;-80
2022/07/05 07:27:46;;;;;;;4.23;1.73;;;21.30;99.90;;;;;;4968943;28;20106;-80
2022/07/05 07:30:23;;;;;;;3.47;1.15;;;21.30;99.90;;;;;;4970098;28;20050;-79
2022/07/05 07:32:50;;;;;;;1.95;0.98;;;21.30;99.90;;;;;;4960520;28;20050;-79
2022/07/05 07:35:17;;;;;;;5.78;1.30;;;21.30;99.90;;;;;;4966825;28;20106;-80
2022/07/05 07:37:44;;;;;;;5.70;1.23;;;21.40;99.90;;;;;;4966966;28;20085;-79
2022/07/05 07:40:11;;;;;;;5.68;1.33;;;21.40;99.90;;;;;;4964296;28;20082;-79
2022/07/05 07:42:38;;;;;;;3.95;1.25;;;21.40;99.90;;;;;;4968086;28;20086;-78
2022/07/05 07:45:06;;;;;;;5.07;0.88;;;21.50;99.90;;;;;;4961929;28;20078;-79
2022/07/05 07:47:34;;;;;;;1.80;1.30;;;21.50;99.90;;;;;;4967276;28;20105;-79
2022/07/05 07:50:02;;;;;;;3.03;0.90;;;21.60;99.90;;;;;;4963973;28;20563;-80
2022/07/05 07:52:30;;;;;;;3.80;1.10;;;21.60;99.90;;;;;;4967857;28;20133;-79
2022/07/05 07:54:58;;;;;;;1.08;0.85;;;21.60;99.90;;;;;;4959675;28;20075;-80
2022/07/05 07:57:24;;;;;;;6.35;1.20;;;21.70;99.90;;;;;;4969772;28;20109;-80
2022/07/05 07:59:51;;;;;;;2.47;0.82;;;21.70;99.90;;;;;;4965162;28;20058;-79
2022/07/05 08:02:21;;;;;;;3.22;0.80;;;21.70;99.90;;;;;;4963283;28;20129;-80
2022/07/05 08:04:48;;;;;;;5.05;0.90;;;21.70;99.90;;;;;;4967614;28;20047;-80
2022/07/05 08:07:17;;;;;;;1.63;1.00;;;21.80;99.90;;;;;;4968060;28;20478;-79
2022/07/05 08:09:44;;;;;;;2.28;1.05;;;21.80;99.90;;;;;;4969636;28;20042;-80
2022/07/05 08:12:11;;;;;;;2.58;0.70;;;21.80;99.90;;;;;;4966872;28;20105;-79
2022/07/05 08:14:38;;;;;;;3.33;1.13;;;21.90;99.90;;;;;;4963373;28;20085;-76
2022/07/05 08:17:08;;;;;;;3.72;1.15;;;21.90;99.90;;;;;;4957002;28;20046;-77
2022/07/05 08:22:22;;;;;;;0.82;0.60;;;22.00;99.90;;;;;;4964308;28;20075;-81
2022/07/05 08:24:49;;;;;;;4.72;1.30;;;22.00;99.90;;;;;;4968727;28;20078;-80
2022/07/05 08:27:16;;;;;;;2.55;1.10;;;22.10;99.90;;;;;;4968990;28;20085;-81
2022/07/05 08:29:43;;;;;;;3.13;1.17;;;22.10;99.90;;;;;;4967459;28;20130;-80
2022/07/05 08:32:10;;;;;;;2.97;1.00;;;22.10;99.90;;;;;;4962703;28;20158;-80
2022/07/05 08:34:37;;;;;;;7.40;1.20;;;22.20;99.90;;;;;;4967840;28;20492;-80
2022/07/05 08:37:05;;;;;;;4.53;1.30;;;22.20;99.90;;;;;;4966734;28;20138;-79
2022/07/05 08:39:40;;;;;;;1.90;0.98;;;22.20;99.90;;;;;;4968960;28;20066;-79
2022/07/05 08:42:11;;;;;;;3.30;0.98;;;22.30;99.90;;;;;;4981902;28;20075;-80
2022/07/05 08:44:40;;;;;;;1.58;0.85;;;22.30;99.90;;;;;;4967238;28;20043;-79
2022/07/05 08:47:10;;;;;;;1.77;0.90;;;22.40;99.90;;;;;;4962220;28;20102;-80
2022/07/05 08:49:40;;;;;;;2.83;1.08;;;22.40;99.90;;;;;;4964239;28;20043;-80
2022/07/05 08:52:10;;;;;;;2.58;1.10;;;22.40;99.90;;;;;;4966192;28;20047;-80
2022/07/05 08:54:38;;;;;;;2.92;0.70;;;22.50;99.90;;;;;;4966289;28;20401;-81
2022/07/05 08:57:05;;;;;;;3.00;0.75;;;22.50;99.90;;;;;;4964202;28;20089;-80
2022/07/05 08:59:39;;;;;;;2.28;1.00;;;22.60;99.90;;;;;;4965040;28;20047;-80
2022/07/05 09:02:10;;;;;;;4.82;1.30;;;22.60;99.90;;;;;;4962471;28;20390;-79
2022/07/05 09:04:43;;;;;;;2.35;1.13;;;22.60;99.90;;;;;;4964091;28;20050;-78
2022/07/05 09:07:14;;;;;;;2.38;1.08;;;22.60;99.90;;;;;;4980084;28;20083;-80
2022/07/05 09:09:43;;;;;;;7.18;1.00;;;22.70;99.90;;;;;;4961719;28;20133;-79
2022/07/05 09:12:15;;;;;;;5.07;1.02;;;22.70;99.90;;;;;;4980249;28;20051;-78
2022/07/05 09:14:48;;;;;;;3.47;0.95;;;22.70;99.90;;;;;;4962415;28;20047;-78
2022/07/05 09:17:15;;;;;;;2.97;0.80;;;22.80;99.90;;;;;;4961425;28;20106;-80
2022/07/05 09:19:42;;;;;;;5.47;0.90;;;22.80;99.90;;;;;;4955537;28;20050;-78
2022/07/05 09:22:09;;;;;;;3.95;0.98;;;22.90;99.90;;;;;;4956702;28;20047;-80
2022/07/05 09:24:44;;;;;;;2.67;1.00;;;22.90;99.90;;;;;;4964691;28;20394;-79
2022/07/05 09:27:13;;;;;;;3.72;1.33;;;22.90;99.90;;;;;;4972833;28;20051;-80
2022/07/05 09:29:54;;;;;;;2.22;1.00;;;22.90;99.90;;;;;;4960262;28;20086;-80
2022/07/05 09:32:30;;;;;;;2.40;0.80;;;23.00;99.90;;;;;;4960169;28;20401;-82
2022/07/05 09:34:58;;;;;;;2.92;0.63;;;23.00;99.90;;;;;;4959923;28;20039;-78
2022/07/05 09:37:43;;;;;;;1.80;0.73;;;23.00;99.90;;;;;;4963647;28;20157;-80
2022/07/05 09:40:10;;;;;;;3.55;0.77;;;23.10;99.90;;;;;;4961887;28;20098;-78
2022/07/05 09:42:45;;;;;;;3.25;0.70;;;23.10;99.90;;;;;;4956308;28;20129;-81
2022/07/05 09:45:24;;;;;;;2.70;0.80;;;23.10;99.90;;;;;;4960004;28;20078;-79
2022/07/05 09:47:55;;;;;;;4.72;1.17;;;23.30;99.90;;;;;;4967286;28;20134;-80
2022/07/05 09:50:43;;;;;;;4.72;0.80;;;23.30;99.90;;;;;;4967749;28;20050;-80
2022/07/05 09:53:47;;;;;;;2.15;0.75;;;23.30;99.90;;;;;;4963512;28;20057;-78
2022/07/05 09:56:14;;;;;;;2.63;0.82;;;23.30;99.90;;;;;;4963291;28;20085;-77
2022/07/05 09:58:41;;;;;;;6.03;1.13;;;23.30;99.90;;;;;;4958177;28;20050;-79
2022/07/05 10:01:28;;;;;;;2.15;0.90;;;23.40;99.90;;;;;;4955690;28;20122;-78
2022/07/05 10:03:58;;;;;;;5.13;0.80;;;23.50;99.90;;;;;;4958675;28;20137;-79
2022/07/05 10:06:26;;;;;;;1.88;0.85;;;23.50;99.90;;;;;;4962047;28;20050;-79
2022/07/05 10:08:53;;;;;;;4.35;1.00;;;23.60;99.90;;;;;;4965357;28;20073;-78
2022/07/05 10:11:22;;;;;;;3.92;1.15;;;23.60;99.90;;;;;;4964200;28;20105;-79
2022/07/05 10:13:55;;;;;;;3.08;0.82;;;23.60;99.90;;;;;;4959620;28;20126;-78
2022/07/05 10:16:22;;;;;;;5.10;0.93;;;23.70;99.90;;;;;;4979681;28;20122;-80
2022/07/05 10:18:52;;;;;;;2.03;0.85;;;23.70;99.90;;;;;;4966061;28;20123;-79
2022/07/05 10:21:19;;;;;;;3.38;0.60;;;23.80;99.90;;;;;;4965377;28;20070;-78
2022/07/05 10:23:51;;;;;;;0.60;0.50;;;23.80;99.90;;;;;;4961708;28;20051;-78
2022/07/05 10:26:18;;;;;;;2.97;1.27;;;23.80;99.90;;;;;;4973680;28;20071;-78
2022/07/05 10:28:48;;;;;;;1.85;0.55;;;23.80;99.90;;;;;;4976815;28;20892;-79
2022/07/05 10:31:16;;;;;;;2.83;0.50;;;23.90;99.90;;;;;;4959241;28;20047;-79
2022/07/05 10:33:44;;;;;;;2.25;0.82;;;23.90;99.90;;;;;;4959890;28;20053;-79
2022/07/05 10:36:13;;;;;;;2.47;0.90;;;23.90;99.90;;;;;;4958737;28;20437;-79
2022/07/05 10:38:43;;;;;;;1.30;0.60;;;24.00;99.90;;;;;;4956736;28;20051;-79
2022/07/05 10:41:19;;;;;;;2.38;0.80;;;24.00;99.90;;;;;;4961385;28;20109;-79
2022/07/05 10:43:55;;;;;;;5.22;0.63;;;24.10;99.90;;;;;;4960247;28;20097;-78
2022/07/05 10:46:37;;;;;;;3.22;0.60;;;24.10;99.90;;;;;;4966431;28;20081;-80
2022/07/05 10:49:15;;;;;;;6.15;1.40;;;24.20;99.90;;;;;;4988264;28;20034;-80
2022/07/05 10:51:42;;;;;;;7.15;1.10;;;24.20;99.90;;;;;;5004238;28;20038;-81
2022/07/05 10:54:09;;;;;;;2.92;0.90;;;24.20;99.90;;;;;;4972364;28;20028;-80
2022/07/05 10:56:38;;;;;;;11.57;1.10;;;24.20;99.90;;;;;;4976700;28;20051;-80
2022/07/05 10:59:11;;;;;;;5.07;0.82;;;24.30;99.90;;;;;;4984759;28;20027;-79
2022/07/05 11:01:40;;;;;;;3.70;0.70;;;24.30;99.90;;;;;;4983364;28;20039;-80
2022/07/05 11:04:20;;;;;;;4.63;0.73;;;24.30;99.90;;;;;;4976868;28;20471;-79
2022/07/05 11:06:49;;;;;;;2.40;0.60;;;24.30;99.90;;;;;;4966214;28;20071;-78
2022/07/05 11:09:17;;;;;;;3.80;0.77;;;24.40;99.90;;;;;;4965519;28;20468;-78
2022/07/05 11:12:02;;;;;;;2.88;0.60;;;24.40;99.90;;;;;;4962247;28;20082;-78
2022/07/05 11:14:50;;;;;;;2.22;0.70;;;24.40;99.90;;;;;;4957285;28;20051;-79
2022/07/05 11:17:22;;;;;;;2.72;0.70;;;24.50;99.90;;;;;;4956919;28;20224;-79
2022/07/05 11:20:30;;;;;;;1.48;0.80;;;24.50;99.90;;;;;;4972551;28;20520;-79
2022/07/05 11:23:07;;;;;;;4.15;0.90;;;24.60;99.90;;;;;;4962752;28;20043;-79
2022/07/05 11:25:37;;;;;;;3.25;0.65;;;24.70;99.90;;;;;;4961903;28;20133;-78
2022/07/05 11:28:13;;;;;;;7.90;0.70;;;24.70;99.90;;;;;;4962602;28;20054;-78
2022/07/05 11:30:52;;;;;;;5.80;0.85;;;24.80;99.90;;;;;;4952175;28;20134;-79
2022/07/05 11:33:37;;;;;;;4.53;1.00;;;24.80;99.90;;;;;;4969131;28;20133;-79
2022/07/05 11:36:07;;;;;;;2.22;0.70;;;24.70;99.90;;;;;;4961946;28;20051;-78
2022/07/05 11:38:34;;;;;;;7.82;0.90;;;24.70;99.90;;;;;;4961438;28;20070;-76
2022/07/05 11:43:57;;;;;;;4.05;0.80;;;24.70;99.90;;;;;;4982895;28;20375;-85
2022/07/05 11:46:24;;;;;;;3.38;0.80;;;24.70;99.90;;;;;;4983223;28;20535;-82
2022/07/05 11:49:11;;;;;;;2.63;1.10;;;24.80;99.90;;;;;;4974476;28;20055;-83
2022/07/05 11:51:37;;;;;;;3.63;0.95;;;24.80;99.90;;;;;;4966142;28;20047;-84
2022/07/05 11:54:09;;;;;;;2.53;0.80;;;24.80;99.90;;;;;;4969511;28;20058;-84
2022/07/05 11:56:43;;;;;;;3.08;0.75;;;24.80;99.90;;;;;;4951698;28;20051;-84
2022/07/05 11:59:21;;;;;;;3.15;0.52;;;24.80;99.90;;;;;;4948226;28;20059;-84
2022/07/05 12:01:48;;;;;;;3.05;0.70;;;24.80;99.90;;;;;;4964667;28;20141;-83
2022/07/05 12:04:35;;;;;;;1.33;0.70;;;25.00;99.90;;;;;;4950139;28;20053;-84
2022/07/05 12:07:02;;;;;;;1.08;0.50;;;25.00;99.90;;;;;;4963165;28;20051;-84
2022/07/05 12:12:42;;;;;;;2.08;0.60;;;25.00;99.90;;;;;;4965873;28;20138;-84
2022/07/05 12:15:11;;;;;;;5.25;0.70;;;25.10;99.90;;;;;;4964032;28;20055;-83
2022/07/05 12:17:39;;;;;;;2.42;0.70;;;25.10;99.90;;;;;;4963663;28;20309;-84
2022/07/05 12:20:08;;;;;;;2.67;0.50;;;25.10;99.90;;;;;;4955610;28;20142;-85
2022/07/05 12:22:37;;;;;;;4.95;1.17;;;25.10;99.90;;;;;;4938221;29;20062;-84
2022/07/05 12:25:06;;;;;;;16.27;1.92;;;25.20;99.90;;;;;;4955745;28;20083;-83
2022/07/05 12:27:35;;;;;;;4.30;0.90;;;25.30;99.90;;;;;;4955362;28;20143;-84
2022/07/05 12:30:04;;;;;;;2.92;0.80;;;25.30;99.90;;;;;;4955421;28;20091;-84
2022/07/05 12:32:32;;;;;;;3.97;0.77;;;25.30;99.90;;;;;;4971288;28;20051;-84
2022/07/05 12:34:59;;;;;;;4.20;0.88;;;25.30;99.90;;;;;;4965129;28;20051;-84
2022/07/05 12:37:33;;;;;;;3.58;1.17;;;25.30;99.90;;;;;;4966965;28;20093;-81
2022/07/05 12:40:08;;;;;;;1.40;0.80;;;25.40;99.90;;;;;;4961184;28;20054;-83
2022/07/05 12:42:39;;;;;;;1.30;0.55;;;25.30;99.90;;;;;;4965836;28;20170;-84
2022/07/05 12:45:10;;;;;;;7.55;0.90;;;25.40;99.90;;;;;;4962974;28;20054;-84
2022/07/05 12:47:55;;;;;;;2.35;0.50;;;25.40;99.90;;;;;;4962978;28;20485;-82
2022/07/05 12:50:28;;;;;;;2.70;0.70;;;25.40;99.90;;;;;;4959539;28;20502;-85
2022/07/05 12:53:01;;;;;;;2.13;0.80;;;25.40;99.90;;;;;;4966327;28;20076;-84
2022/07/05 12:58:20;;;;;;;1.75;0.70;;;25.50;99.90;;;;;;4968031;28;20121;-83
2022/07/05 13:00:47;;;;;;;2.63;0.80;;;25.50;99.90;;;;;;4965363;28;20078;-84
2022/07/05 13:03:15;;;;;;;4.65;0.80;;;25.50;99.90;;;;;;4962184;28;20047;-83
2022/07/05 13:05:42;;;;;;;1.85;0.65;;;25.50;99.90;;;;;;4962582;28;20047;-85
2022/07/05 13:08:09;;;;;;;4.30;0.90;;;25.50;99.90;;;;;;4961558;28;20551;-84
2022/07/05 13:10:46;;;;;;;4.15;0.80;;;25.50;99.90;;;;;;4965390;28;20134;-84